createdAt,value
2018-02-11T00:00:34.543Z,14.20
2018-02-11T00:03:02.069Z,13.73
2018-02-11T00:05:29.677Z,12.90
2018-02-11T00:07:57.168Z,12.57
2018-02-11T00:10:24.679Z,12.17
2018-02-11T00:12:53.030Z,13.67
2018-02-11T00:15:20.550Z,12.17
2018-02-11T00:17:49.368Z,12.67
2018-02-11T00:20:20.458Z,12.80
2018-02-11T00:22:50.062Z,13.53
2018-02-11T00:25:18.422Z,11.80
2018-02-11T00:27:50.460Z,12.03
2018-02-11T00:30:18.027Z,12.80
2018-02-11T00:32:45.643Z,11.10
2018-02-11T00:35:13.914Z,11.97
2018-02-11T00:37:47.867Z,10.70
2018-02-11T00:40:15.385Z,9.93
2018-02-11T00:42:42.852Z,11.60
2018-02-11T00:45:11.113Z,10.10
2018-02-11T00:47:39.991Z,10.17
2018-02-11T00:50:07.533Z,10.70
2018-02-11T00:52:35.047Z,9.97
2018-02-11T00:55:03.300Z,9.87
2018-02-11T00:57:30.778Z,10.87
2018-02-11T00:59:58.320Z,9.83
2018-02-11T01:02:26.538Z,9.17
2018-02-11T01:04:54.010Z,10.83
2018-02-11T01:07:21.532Z,10.53
2018-02-11T01:09:49.501Z,11.67
2018-02-11T01:12:17.005Z,8.93
2018-02-11T01:14:44.559Z,9.50
2018-02-11T01:17:12.018Z,10.40
2018-02-11T01:19:39.506Z,10.43
2018-02-11T01:22:07.774Z,10.37
2018-02-11T01:24:36.010Z,10.80
2018-02-11T01:27:03.493Z,10.20
2018-02-11T01:29:31.773Z,10.67
2018-02-11T01:32:00.026Z,11.40
2018-02-11T01:34:27.494Z,11.00
2018-02-11T01:36:54.987Z,9.80
2018-02-11T01:39:22.458Z,10.87
2018-02-11T01:41:50.633Z,10.93
2018-02-11T01:44:18.206Z,10.53
2018-02-11T01:46:59.375Z,10.97
2018-02-11T01:49:27.316Z,13.33
2018-02-11T01:51:54.837Z,11.00
2018-02-11T01:54:22.333Z,9.50
2018-02-11T01:56:52.136Z,9.50
2018-02-11T01:59:21.381Z,9.73
2018-02-11T02:01:48.875Z,10.50
2018-02-11T02:04:16.342Z,8.20
2018-02-11T02:06:44.590Z,10.03
2018-02-11T02:09:12.074Z,8.13
2018-02-11T02:11:40.343Z,8.90
2018-02-11T02:14:07.850Z,9.60
2018-02-11T02:16:35.343Z,8.43
2018-02-11T02:19:02.871Z,8.77
2018-02-11T02:21:30.446Z,8.30
2018-02-11T02:23:57.934Z,8.13
2018-02-11T02:26:25.414Z,7.60
2018-02-11T02:28:52.891Z,8.00
2018-02-11T02:31:20.392Z,9.10
2018-02-11T02:33:47.888Z,7.90
2018-02-11T02:36:16.147Z,7.97
2018-02-11T02:38:44.471Z,8.50
2018-02-11T02:41:11.963Z,8.27
2018-02-11T02:43:39.676Z,7.90
2018-02-11T02:46:07.192Z,9.10
2018-02-11T02:48:35.475Z,9.70
2018-02-11T02:51:03.040Z,7.63
2018-02-11T02:53:30.542Z,9.00
2018-02-11T02:58:32.757Z,8.20
2018-02-11T03:01:00.283Z,8.57
2018-02-11T03:03:27.849Z,8.57
2018-02-11T03:05:56.014Z,7.90
2018-02-11T03:08:23.529Z,7.93
2018-02-11T03:10:51.781Z,7.77
2018-02-11T03:13:19.353Z,7.63
2018-02-11T03:15:47.637Z,8.57
2018-02-11T03:18:15.923Z,9.60
2018-02-11T03:20:43.418Z,9.30
2018-02-11T03:23:10.917Z,8.43
2018-02-11T03:25:38.530Z,7.73
2018-02-11T03:28:06.019Z,8.57
2018-02-11T03:30:34.324Z,8.20
2018-02-11T03:33:02.583Z,9.03
2018-02-11T03:35:30.841Z,8.80
2018-02-11T03:37:58.376Z,8.20
2018-02-11T03:40:25.898Z,8.87
2018-02-11T03:42:54.129Z,8.73
2018-02-11T03:45:22.522Z,8.00
2018-02-11T03:47:51.553Z,7.00
2018-02-11T03:50:19.061Z,8.20
2018-02-11T03:52:46.715Z,8.03
2018-02-11T03:55:14.988Z,8.60
2018-02-11T03:57:42.498Z,8.90
2018-02-11T04:00:10.742Z,8.90
2018-02-11T04:02:38.217Z,8.63
2018-02-11T04:05:06.452Z,8.70
2018-02-11T04:07:33.937Z,8.70
2018-02-11T04:10:01.426Z,7.60
2018-02-11T04:12:29.120Z,7.83
2018-02-11T04:14:56.614Z,7.50
2018-02-11T04:17:24.828Z,7.43
2018-02-11T04:19:52.316Z,7.23
2018-02-11T04:22:19.866Z,7.70
2018-02-11T04:24:47.475Z,8.07
2018-02-11T04:27:15.717Z,7.37
2018-02-11T04:29:43.242Z,6.10
2018-02-11T04:32:10.714Z,5.57
2018-02-11T04:34:38.195Z,5.20
2018-02-11T04:37:05.670Z,4.83
2018-02-11T04:39:33.126Z,3.90
2018-02-11T04:42:00.608Z,5.20
2018-02-11T04:44:28.440Z,5.17
2018-02-11T04:46:55.899Z,4.80
2018-02-11T04:49:24.122Z,3.97
2018-02-11T04:51:51.589Z,4.60
2018-02-11T04:54:19.062Z,4.77
2018-02-11T04:56:47.081Z,4.50
2018-02-11T04:59:14.586Z,5.10
2018-02-11T05:01:42.061Z,5.80
2018-02-11T05:04:10.319Z,6.23
2018-02-11T05:06:37.781Z,6.80
2018-02-11T05:09:05.253Z,7.33
2018-02-11T05:11:32.702Z,7.60
2018-02-11T05:14:00.185Z,7.17
2018-02-11T05:16:27.634Z,7.43
2018-02-11T05:18:55.853Z,7.87
2018-02-11T05:21:23.367Z,8.30
2018-02-11T05:23:50.814Z,8.37
2018-02-11T05:26:18.313Z,8.90
2018-02-11T05:28:45.791Z,9.20
2018-02-11T05:31:13.243Z,8.03
2018-02-11T05:33:40.701Z,9.33
2018-02-11T05:36:08.195Z,10.80
2018-02-11T05:38:35.647Z,10.40
2018-02-11T05:41:03.209Z,13.57
2018-02-11T05:43:31.459Z,11.20
2018-02-11T05:45:58.914Z,10.70
2018-02-11T05:48:26.402Z,11.13
2018-02-11T05:50:53.879Z,11.70
2018-02-11T05:53:22.097Z,11.80
2018-02-11T05:55:49.549Z,11.63
2018-02-11T05:58:17.062Z,11.87
2018-02-11T06:00:44.524Z,9.70
2018-02-11T06:03:12.039Z,9.13
2018-02-11T06:05:39.513Z,9.77
2018-02-11T06:08:06.971Z,9.20
2018-02-11T06:10:34.427Z,8.73
2018-02-11T06:13:01.909Z,7.93
2018-02-11T06:15:29.445Z,6.73
2018-02-11T06:17:58.398Z,5.33
2018-02-11T06:20:25.882Z,5.43
2018-02-11T06:22:53.350Z,3.93
2018-02-11T06:25:21.568Z,4.23
2018-02-11T06:27:49.038Z,3.83
2018-02-11T06:30:16.499Z,3.80
2018-02-11T06:32:43.966Z,4.10
2018-02-11T06:35:11.442Z,4.20
2018-02-11T06:37:38.897Z,3.83
2018-02-11T06:40:06.350Z,4.30
2018-02-11T06:42:33.826Z,4.63
2018-02-11T06:45:02.801Z,4.13
2018-02-11T06:47:30.262Z,4.17
2018-02-11T06:49:57.737Z,4.00
2018-02-11T06:52:25.198Z,4.20
2018-02-11T06:54:53.483Z,2.13
2018-02-11T06:57:21.765Z,3.43
2018-02-11T06:59:50.028Z,2.47
2018-02-11T07:02:17.474Z,3.80
2018-02-11T07:04:44.945Z,2.57
2018-02-11T07:07:13.214Z,2.30
2018-02-11T07:09:41.299Z,1.90
2018-02-11T07:12:10.265Z,2.40
2018-02-11T07:14:39.233Z,2.17
2018-02-11T07:17:06.677Z,2.40
2018-02-11T07:19:34.154Z,3.10
2018-02-11T07:22:01.615Z,2.97
2018-02-11T07:24:29.065Z,2.57
2018-02-11T07:26:56.530Z,2.03
2018-02-11T07:29:24.338Z,1.80
2018-02-11T07:31:52.601Z,1.73
2018-02-11T07:34:20.983Z,2.70
2018-02-11T07:36:49.227Z,1.40
2018-02-11T07:39:16.770Z,1.53
2018-02-11T07:41:44.242Z,2.23
2018-02-11T07:44:11.735Z,1.60
2018-02-11T07:46:39.296Z,1.90
2018-02-11T07:49:08.394Z,1.70
2018-02-11T07:51:36.911Z,2.50
2018-02-11T07:54:04.389Z,2.23
2018-02-11T07:56:31.973Z,1.80
2018-02-11T07:58:59.418Z,2.57
2018-02-11T08:01:26.875Z,1.93
2018-02-11T08:03:54.339Z,1.80
2018-02-11T08:06:22.665Z,2.33
2018-02-11T08:08:50.194Z,1.90
2018-02-11T08:11:18.817Z,2.23
2018-02-11T08:13:46.282Z,2.67
2018-02-11T08:16:13.797Z,1.97
2018-02-11T08:18:42.138Z,3.07
2018-02-11T08:21:09.627Z,3.30
2018-02-11T08:23:38.617Z,2.20
2018-02-11T08:26:06.878Z,2.27
2018-02-11T08:28:34.386Z,2.37
2018-02-11T08:31:02.390Z,1.93
2018-02-11T08:33:30.634Z,2.97
2018-02-11T08:35:58.111Z,1.47
2018-02-11T08:38:25.576Z,2.00
2018-02-11T08:40:53.056Z,2.10
2018-02-11T08:43:20.562Z,1.90
2018-02-11T08:45:48.076Z,2.33
2018-02-11T08:48:15.613Z,1.43
2018-02-11T08:50:43.142Z,2.20
2018-02-11T08:53:10.646Z,3.40
2018-02-11T08:55:38.107Z,2.37
2018-02-11T08:58:05.571Z,1.40
2018-02-11T09:00:33.806Z,1.77
2018-02-11T09:03:02.053Z,1.97
2018-02-11T09:05:29.514Z,2.47
2018-02-11T09:07:56.987Z,1.77
2018-02-11T09:10:24.465Z,2.00
2018-02-11T09:12:51.933Z,1.67
2018-02-11T09:15:19.425Z,1.40
2018-02-11T09:17:46.893Z,2.97
2018-02-11T09:20:14.357Z,1.93
2018-02-11T09:22:41.826Z,2.20
2018-02-11T09:25:09.298Z,2.40
2018-02-11T09:27:36.773Z,1.50
2018-02-11T09:30:04.247Z,1.77
2018-02-11T09:32:32.522Z,1.30
2018-02-11T09:35:00.765Z,1.67
2018-02-11T09:37:29.287Z,1.77
2018-02-11T09:39:56.787Z,1.97
2018-02-11T09:42:24.257Z,2.10
2018-02-11T09:44:51.732Z,1.90
2018-02-11T09:47:19.203Z,1.73
2018-02-11T09:49:47.437Z,1.30
2018-02-11T09:52:14.919Z,1.70
2018-02-11T09:54:42.392Z,1.97
2018-02-11T09:57:10.631Z,1.73
2018-02-11T09:59:38.094Z,2.20
2018-02-11T10:02:05.557Z,1.40
2018-02-11T10:04:33.044Z,1.67
2018-02-11T10:07:01.271Z,1.20
2018-02-11T10:09:28.750Z,2.13
2018-02-11T10:11:56.222Z,1.80
2018-02-11T10:14:24.465Z,1.23
2018-02-11T10:16:51.946Z,1.53
2018-02-11T10:19:19.432Z,3.00
2018-02-11T10:21:47.671Z,1.30
2018-02-11T10:24:16.116Z,1.57
2018-02-11T10:26:43.690Z,1.90
2018-02-11T10:29:12.826Z,1.77
2018-02-11T10:31:40.322Z,2.07
2018-02-11T10:34:07.798Z,1.67
2018-02-11T10:36:35.297Z,2.40
2018-02-11T10:39:03.526Z,1.20
2018-02-11T10:41:30.998Z,2.10
2018-02-11T10:43:58.474Z,1.93
2018-02-11T10:46:25.937Z,1.30
2018-02-11T10:48:54.182Z,1.77
2018-02-11T10:51:22.470Z,2.00
2018-02-11T10:53:50.715Z,1.67
2018-02-11T10:56:18.183Z,1.47
2018-02-11T10:58:45.654Z,2.70
2018-02-11T11:01:13.134Z,1.73
2018-02-11T11:03:41.384Z,1.93
2018-02-11T11:06:08.873Z,1.70
2018-02-11T11:08:37.242Z,1.47
2018-02-11T11:11:05.516Z,1.53
2018-02-11T11:13:33.792Z,1.30
2018-02-11T11:16:02.617Z,1.60
2018-02-11T11:18:30.104Z,2.20
2018-02-11T11:20:57.686Z,2.23
2018-02-11T11:23:25.269Z,1.40
2018-02-11T11:25:53.523Z,2.33
2018-02-11T11:28:21.029Z,1.73
2018-02-11T11:30:48.497Z,1.37
2018-02-11T11:33:15.972Z,2.00
2018-02-11T11:35:43.455Z,1.33
2018-02-11T11:38:10.910Z,1.60
2018-02-11T11:40:38.381Z,1.10
2018-02-11T11:43:06.614Z,1.30
2018-02-11T11:45:34.094Z,1.40
2018-02-11T11:48:01.587Z,1.23
2018-02-11T11:50:29.872Z,2.83
2018-02-11T11:52:57.349Z,1.70
2018-02-11T11:55:24.853Z,1.70
2018-02-11T11:57:53.140Z,1.10
2018-02-11T12:00:21.391Z,1.80
2018-02-11T12:02:48.878Z,1.53
2018-02-11T12:05:17.236Z,1.30
2018-02-11T12:07:46.532Z,1.53
2018-02-11T12:10:14.038Z,1.90
2018-02-11T12:12:42.454Z,1.37
2018-02-11T12:15:10.133Z,2.00
2018-02-11T12:17:37.689Z,1.70
2018-02-11T12:20:05.191Z,1.60
2018-02-11T12:22:32.673Z,1.90
2018-02-11T12:25:00.145Z,2.53
2018-02-11T12:27:27.617Z,1.63
2018-02-11T12:29:55.074Z,1.70
2018-02-11T12:32:22.582Z,1.13
2018-02-11T12:34:50.038Z,1.23
2018-02-11T12:37:17.511Z,1.90
2018-02-11T12:39:44.986Z,2.33
2018-02-11T12:42:12.434Z,1.40
2018-02-11T12:44:39.882Z,1.20
2018-02-11T12:47:07.362Z,1.43
2018-02-11T12:49:34.815Z,1.23
2018-02-11T12:52:03.063Z,1.47
2018-02-11T12:54:30.578Z,2.37
2018-02-11T12:56:58.803Z,1.00
2018-02-11T12:59:26.258Z,1.80
2018-02-11T13:01:54.223Z,1.30
2018-02-11T13:04:21.679Z,1.20
2018-02-11T13:06:49.141Z,1.10
2018-02-11T13:09:16.602Z,1.23
2018-02-11T13:11:44.054Z,1.33
2018-02-11T13:14:11.508Z,1.13
2018-02-11T13:16:38.975Z,1.80
2018-02-11T13:19:06.478Z,1.20
2018-02-11T13:21:34.015Z,1.20
2018-02-11T13:24:02.454Z,1.93
2018-02-11T13:26:30.799Z,1.43
2018-02-11T13:28:58.294Z,1.47
2018-02-11T13:31:25.782Z,1.10
2018-02-11T13:33:54.882Z,1.17
2018-02-11T13:36:22.383Z,1.70
2018-02-11T13:38:49.873Z,1.20
2018-02-11T13:41:17.368Z,1.43
2018-02-11T13:43:45.616Z,1.73
2018-02-11T13:46:13.098Z,2.90
2018-02-11T13:48:41.346Z,1.77
2018-02-11T13:51:08.830Z,1.30
2018-02-11T13:53:37.151Z,1.43
2018-02-11T13:56:04.644Z,1.03
2018-02-11T13:58:32.128Z,1.23
2018-02-11T14:01:00.367Z,1.33
2018-02-11T14:03:27.858Z,1.40
2018-02-11T14:05:56.102Z,1.57
2018-02-11T14:08:23.580Z,1.33
2018-02-11T14:10:51.963Z,1.70
2018-02-11T14:13:20.190Z,1.13
2018-02-11T14:15:47.685Z,1.33
2018-02-11T14:18:15.927Z,1.13
2018-02-11T14:20:43.384Z,1.40
2018-02-11T14:23:10.857Z,1.30
2018-02-11T14:25:38.309Z,1.27
2018-02-11T14:28:05.758Z,2.07
2018-02-11T14:30:33.250Z,1.63
2018-02-11T14:33:02.382Z,1.93
2018-02-11T14:35:29.830Z,1.27
2018-02-11T14:37:57.320Z,2.17
2018-02-11T14:40:24.778Z,1.00
2018-02-11T14:42:52.238Z,1.53
2018-02-11T14:45:19.743Z,1.10
2018-02-11T14:47:47.970Z,1.23
2018-02-11T14:50:15.426Z,1.23
2018-02-11T14:52:42.933Z,1.93
2018-02-11T14:55:11.159Z,0.90
2018-02-11T14:57:38.619Z,0.90
2018-02-11T15:00:06.108Z,1.13
2018-02-11T15:02:34.321Z,1.70
2018-02-11T15:05:01.830Z,1.27
2018-02-11T15:07:29.305Z,1.47
2018-02-11T15:09:57.542Z,1.53
2018-02-11T15:12:25.003Z,1.60
2018-02-11T15:14:52.486Z,1.53
2018-02-11T15:17:20.714Z,1.53
2018-02-11T15:19:48.171Z,2.97
2018-02-11T15:22:15.658Z,1.73
2018-02-11T15:24:43.888Z,1.27
2018-02-11T15:27:11.333Z,1.10
2018-02-11T15:29:38.831Z,1.70
2018-02-11T15:32:07.091Z,1.10
2018-02-11T15:34:34.541Z,1.73
2018-02-11T15:37:02.019Z,1.43
2018-02-11T15:39:30.458Z,1.60
2018-02-11T15:41:57.926Z,1.77
2018-02-11T15:44:25.412Z,1.10
2018-02-11T15:46:52.915Z,1.60
2018-02-11T15:49:21.130Z,2.07
2018-02-11T15:51:48.610Z,1.90
2018-02-11T15:54:16.130Z,1.60
2018-02-11T15:56:43.590Z,2.00
2018-02-11T15:59:11.881Z,1.87
2018-02-11T16:01:39.329Z,2.57
2018-02-11T16:04:06.786Z,1.60
2018-02-11T16:06:34.259Z,1.80
2018-02-11T16:09:01.729Z,1.40
2018-02-11T16:11:29.173Z,1.93
2018-02-11T16:13:56.642Z,2.53
2018-02-11T16:16:24.122Z,1.70
2018-02-11T16:18:51.658Z,1.60
2018-02-11T16:21:19.925Z,1.80
2018-02-11T16:23:47.384Z,2.70
2018-02-11T16:26:14.829Z,2.00
2018-02-11T16:28:43.086Z,2.03
2018-02-11T16:31:10.550Z,2.17
2018-02-11T16:33:38.016Z,1.70
2018-02-11T16:36:06.306Z,2.13
2018-02-11T16:38:33.814Z,2.53
2018-02-11T16:41:01.246Z,2.10
2018-02-11T16:43:28.746Z,1.73
2018-02-11T16:45:56.193Z,2.10
2018-02-11T16:48:23.654Z,1.77
2018-02-11T16:50:51.202Z,1.70
2018-02-11T16:53:18.646Z,1.73
2018-02-11T16:55:46.121Z,1.40
2018-02-11T16:58:13.595Z,1.77
2018-02-11T17:00:41.453Z,2.07
2018-02-11T17:03:08.910Z,2.80
2018-02-11T17:05:36.403Z,2.10
2018-02-11T17:08:03.850Z,1.90
2018-02-11T17:10:31.306Z,1.57
2018-02-11T17:12:58.820Z,1.77
2018-02-11T17:15:27.021Z,2.40
2018-02-11T17:17:54.478Z,1.73
2018-02-11T17:20:21.965Z,1.50
2018-02-11T17:22:49.419Z,1.40
2018-02-11T17:25:16.869Z,1.50
2018-02-11T17:27:44.334Z,1.50
2018-02-11T17:30:11.795Z,1.43
2018-02-11T17:32:39.250Z,1.07
2018-02-11T17:35:06.757Z,0.97
2018-02-11T17:37:34.217Z,1.47
2018-02-11T17:40:01.759Z,1.27
2018-02-11T17:42:29.260Z,1.37
2018-02-11T17:44:56.723Z,1.63
2018-02-11T17:47:25.000Z,2.40
2018-02-11T17:49:52.507Z,2.90
2018-02-11T17:52:19.970Z,3.43
2018-02-11T17:54:47.427Z,2.53
2018-02-11T17:57:14.907Z,2.40
2018-02-11T17:59:42.366Z,2.47
2018-02-11T18:02:09.833Z,1.93
2018-02-11T18:04:37.310Z,2.00
2018-02-11T18:07:04.775Z,1.50
2018-02-11T18:09:33.022Z,1.83
2018-02-11T18:12:01.430Z,1.30
2018-02-11T18:14:28.909Z,2.10
2018-02-11T18:16:57.139Z,1.70
2018-02-11T18:19:24.684Z,1.57
2018-02-11T18:21:52.211Z,2.10
2018-02-11T18:24:19.707Z,1.83
2018-02-11T18:26:47.225Z,2.60
2018-02-11T18:29:14.723Z,2.67
2018-02-11T18:31:42.198Z,2.10
2018-02-11T18:34:10.338Z,2.50
2018-02-11T18:36:37.907Z,1.73
2018-02-11T18:39:05.396Z,2.93
2018-02-11T18:41:32.887Z,1.40
2018-02-11T18:44:00.377Z,1.30
2018-02-11T18:46:27.841Z,1.63
2018-02-11T18:48:55.421Z,1.70
2018-02-11T18:51:24.417Z,2.00
2018-02-11T18:53:53.416Z,2.97
2018-02-11T18:56:21.774Z,3.30
2018-02-11T18:58:49.272Z,2.30
2018-02-11T19:01:16.702Z,1.80
2018-02-11T19:03:45.014Z,3.00
2018-02-11T19:06:12.563Z,2.40
2018-02-11T19:08:41.807Z,4.00
2018-02-11T19:11:09.371Z,2.07
2018-02-11T19:13:36.891Z,1.47
2018-02-11T19:16:04.394Z,1.50
2018-02-11T19:18:31.897Z,2.93
2018-02-11T19:21:00.135Z,1.43
2018-02-11T19:23:27.710Z,1.87
2018-02-11T19:25:55.285Z,1.63
2018-02-11T19:28:23.558Z,1.50
2018-02-11T19:30:51.503Z,1.77
2018-02-11T19:33:19.038Z,1.80
2018-02-11T19:35:46.557Z,1.60
2018-02-11T19:38:14.078Z,2.27
2018-02-11T19:40:42.413Z,1.90
2018-02-11T19:43:10.653Z,2.60
2018-02-11T19:45:38.218Z,2.70
2018-02-11T19:48:06.455Z,2.07
2018-02-11T19:50:33.967Z,2.00
2018-02-11T19:53:02.230Z,2.20
2018-02-11T19:55:29.694Z,1.60
2018-02-11T19:57:57.215Z,1.37
2018-02-11T20:00:24.698Z,2.17
2018-02-11T20:02:53.053Z,2.00
2018-02-11T20:05:20.630Z,2.20
2018-02-11T20:07:48.907Z,2.20
2018-02-11T20:10:17.139Z,2.73
2018-02-11T20:12:44.635Z,1.47
2018-02-11T20:15:12.892Z,1.73
2018-02-11T20:17:40.377Z,2.20
2018-02-11T20:20:07.993Z,1.97
2018-02-11T20:22:37.270Z,2.07
2018-02-11T20:25:04.810Z,1.67
2018-02-11T20:27:33.690Z,3.77
2018-02-11T20:30:01.722Z,2.70
2018-02-11T20:32:29.712Z,3.13
2018-02-11T20:34:57.470Z,2.70
2018-02-11T20:37:25.468Z,2.73
2018-02-11T20:39:52.994Z,2.70
2018-02-11T20:42:21.311Z,2.40
2018-02-11T20:44:49.970Z,1.73
2018-02-11T20:47:18.140Z,1.90
2018-02-11T20:49:50.156Z,1.90
2018-02-11T20:52:18.739Z,2.53
2018-02-11T20:54:50.723Z,2.70
2018-02-11T20:57:23.675Z,1.80
2018-02-11T20:59:54.632Z,1.97
2018-02-11T21:02:22.377Z,1.63
2018-02-11T21:04:51.691Z,1.90
2018-02-11T21:07:19.465Z,1.83
2018-02-11T21:09:48.233Z,2.10
2018-02-11T21:12:15.790Z,2.40
2018-02-11T21:14:43.281Z,2.17
2018-02-11T21:17:10.812Z,2.43
2018-02-11T21:19:38.375Z,3.20
2018-02-11T21:22:06.034Z,3.50
2018-02-11T21:24:33.612Z,1.97
2018-02-11T21:27:01.288Z,2.37
2018-02-11T21:29:29.557Z,1.83
2018-02-11T21:31:57.291Z,1.70
2018-02-11T21:34:24.899Z,2.87
2018-02-11T21:36:53.148Z,2.70
2018-02-11T21:39:21.113Z,3.10
2018-02-11T21:41:48.608Z,2.63
2018-02-11T21:44:16.837Z,1.80
2018-02-11T21:46:45.091Z,2.40
2018-02-11T21:49:12.579Z,2.13
2018-02-11T21:51:40.061Z,3.40
2018-02-11T21:54:07.505Z,2.40
2018-02-11T21:56:35.010Z,2.00
2018-02-11T21:59:02.484Z,1.80
2018-02-11T22:01:29.971Z,2.03
2018-02-11T22:03:57.456Z,1.67
2018-02-11T22:06:25.685Z,1.70
2018-02-11T22:08:53.159Z,2.17
2018-02-11T22:11:20.666Z,1.90
2018-02-11T22:13:48.166Z,2.63
2018-02-11T22:16:15.656Z,3.40
2018-02-11T22:18:43.897Z,1.70
2018-02-11T22:21:11.369Z,2.60
2018-02-11T22:23:38.828Z,2.17
2018-02-11T22:26:06.323Z,2.70
2018-02-11T22:28:33.817Z,1.87
2018-02-11T22:31:01.299Z,2.33
2018-02-11T22:33:28.805Z,2.43
2018-02-11T22:35:56.300Z,3.10
2018-02-11T22:38:23.750Z,4.50
2018-02-11T22:40:51.247Z,3.70
2018-02-11T22:43:19.546Z,2.63
2018-02-11T22:45:47.040Z,2.90
2018-02-11T22:48:15.882Z,2.00
2018-02-11T22:50:43.712Z,2.47
2018-02-11T22:53:11.173Z,2.20
2018-02-11T22:55:40.724Z,2.30
2018-02-11T22:58:08.182Z,2.00
2018-02-11T23:00:35.665Z,3.60
2018-02-11T23:03:03.160Z,1.70
2018-02-11T23:05:31.420Z,2.43
2018-02-11T23:07:58.910Z,1.77
2018-02-11T23:10:26.451Z,2.63
2018-02-11T23:12:54.931Z,1.73
2018-02-11T23:15:23.198Z,2.67
2018-02-11T23:17:50.723Z,1.93
2018-02-11T23:20:18.194Z,2.50
2018-02-11T23:22:45.657Z,2.20
2018-02-11T23:25:13.139Z,2.30
2018-02-11T23:27:41.374Z,2.37
2018-02-11T23:30:09.608Z,2.10
2018-02-11T23:32:37.082Z,2.10
2018-02-11T23:35:04.550Z,2.30
2018-02-11T23:37:32.054Z,2.93
2018-02-11T23:39:59.558Z,2.97
2018-02-11T23:42:27.032Z,2.20
2018-02-11T23:44:54.572Z,2.20
2018-02-11T23:47:22.686Z,2.20
2018-02-11T23:49:51.000Z,2.13
2018-02-11T23:52:19.242Z,1.80
2018-02-11T23:54:48.243Z,1.60
2018-02-11T23:57:17.466Z,2.50
2018-02-11T23:59:44.921Z,2.07
